Latest Coastal Weather Observations for Cape Grim

IDT60701

Issued at 5:12 am EST Wednesday 18 September 2019 (issued every 10 minutes, with the page automatically refreshed every 10 minutes)

About coastal observations | Map of coastal stations | Coastal observations for TAS | Marine services | Other Formats
Station Details ID: 091331 Name: CAPE GRIM Lat: -40.68 Lon: 144.69 Height: 86.0 m
Data from the previous 72 hours. | See also: Recent months at Cape Grim
Date/Time
EST
Wind Sea
Height
m
Swell Vis
km
Cloud Weather Temp
°C
Press
hPa
Rain since
9am
mm
Dir  Spd
kts
Gust
kts
Height
m
Period
s
Dir
18/05:00am NE 9 10 - - - - - Partly cloudy - 7.0 1028.0 0.0
18/04:30am NNE 8 11 - - - - - Partly cloudy - 6.6 1027.9 0.0
18/04:00am NNE 9 10 - - - - - Partly cloudy - 6.6 1028.2 0.0
18/03:30am NNE 9 10 - - - - - Partly cloudy - 6.9 1028.1 0.0
18/03:00am N 6 9 - - - - - Mostly cloudy - 7.9 1028.3 0.0
18/02:30am NNW 6 8 - - - - - Partly cloudy - 8.4 1028.5 0.0
18/02:00am NNW 9 11 - - - - - Partly cloudy - 8.0 1028.8 0.0
18/01:30am NNW 10 13 - - - - - Partly cloudy - 8.4 1029.1 0.0
18/01:00am NW 9 14 - - - - - Cloudy - 8.6 1029.3 0.0
18/12:30am NW 9 13 - - - - - Partly cloudy - 8.5 1029.4 0.0
18/12:00am NW 7 9 - - - - - Partly cloudy - 8.4 1029.3 0.0
 
Date/Time
EST
Wind Sea
Height
m
Swell Vis
km
Cloud Weather Temp
°C
Press
hPa
Rain since
9am
mm
Dir  Spd
kts
Gust
kts
Height
m
Period
s
Dir
17/11:30pm WNW 7 9 - - - - - Partly cloudy - 7.8 1029.3 0.0
17/11:00pm WNW 9 11 - - - - - Partly cloudy - 7.9 1029.4 0.0
17/10:30pm WNW 7 9 - - - - - Partly cloudy - 8.2 1029.4 0.0
17/10:00pm WNW 9 11 - - - - - Partly cloudy - 8.3 1029.5 0.0
17/09:30pm WNW 8 11 - - - - - Partly cloudy - 8.0 1029.5 0.0
17/09:00pm WNW 8 11 - - - - - Mostly clear - 8.3 1029.5 0.0
17/08:30pm WNW 8 14 - - - - - Partly cloudy - 8.2 1029.4 0.0
17/08:00pm W 7 9 - - - - - Partly cloudy - 8.4 1029.1 0.0
17/07:30pm W 9 13 - - - - - Partly cloudy - 8.4 1029.0 0.0
17/07:00pm WNW 8 10 - - - - - Partly cloudy - 8.3 1028.8 0.0
17/06:30pm W 8 11 - - - - - Partly cloudy - 8.6 1028.6 0.0
17/06:00pm W 8 12 - - - - - Partly cloudy - 8.8 1028.6 0.0
17/05:30pm W 7 11 - - - - - Partly cloudy - 9.3 1028.5 0.0
17/05:00pm W 8 12 - - - - - Partly cloudy - 9.8 1028.4 0.0
17/04:30pm W 11 15 - - - - - Partly cloudy - 9.4 1028.2 0.0
17/04:00pm WNW 10 14 - - - - - Cloudy - 10.0 1028.2 0.0
17/03:30pm WNW 8 11 - - - - - Cloudy - 9.7 1028.2 0.0
17/03:00pm WNW 9 11 - - - - - Cloudy - 9.8 1028.2 0.0
17/02:30pm WNW 10 12 - - - - - Partly cloudy - 10.4 1028.4 0.0
17/02:00pm WNW 9 12 - - - - - Cloudy - 11.6 1028.4 0.0
17/01:30pm WNW 9 11 - - - - - Partly cloudy - 10.8 1028.5 0.0
17/01:00pm WNW 8 10 - - - - - Cloudy - 10.2 1028.8 0.0
17/12:30pm NW 7 9 - - - - - Cloudy - 10.4 1028.9 0.0
17/12:00pm NW 7 9 - - - - - Mostly cloudy - 10.4 1028.9 0.0
17/11:30am W 5 7 - - - - - Partly cloudy - 11.0 1029.1 0.0
17/11:00am NW 7 10 - - - - - - - 10.8 1028.9 0.0
17/10:30am NW 7 9 - - - - - Partly cloudy - 9.3 1029.1 0.0
17/10:00am NNW 5 7 - - - - - Partly cloudy - 9.5 1029.1 0.0
17/09:30am N 7 9 - - - - - Partly cloudy - 9.1 1029.0 0.0
17/09:00am NNE 7 9 - - - - - Partly cloudy - 9.1 1028.7 0.8
17/08:30am NNE 7 8 - - - - - Cloudy - 7.9 1028.8 0.8
17/08:00am NE 5 7 - - - - - Partly cloudy - 7.4 1028.6 0.8
17/07:30am NE 6 7 - - - - - Cloudy - 5.8 1028.3 0.8
17/07:00am ENE 6 7 - - - - - Cloudy - 5.3 1027.9 0.8
17/06:30am ESE 6 6 - - - - - Partly cloudy - 5.1 1027.6 0.8
17/06:00am ESE 7 9 - - - - - Mostly cloudy - 4.1 1027.1 0.8
17/05:30am E 3 4 - - - - - Partly cloudy - 5.4 1026.6 0.8
17/05:00am E 4 5 - - - - - - - 4.9 1026.5 0.8
17/04:30am ESE 3 4 - - - - - - - 5.2 1026.3 0.8
17/04:00am SE 4 5 - - - - - Partly cloudy - 5.2 1026.3 0.8
17/03:30am ESE 4 5 - - - - - Partly cloudy - 5.2 1026.3 0.8
17/03:00am SE 4 4 - - - - - Mostly clear - 5.1 1026.3 0.8
17/02:30am ESE 4 5 - - - - - - - 4.7 1026.7 0.8
17/02:00am SSE 5 6 - - - - - - - 5.2 1026.6 0.8
17/01:30am ESE 9 10 - - - - - - - 4.1 1026.9 0.8
17/01:00am SSE 7 10 - - - - - - - 5.0 1027.0 0.8
17/12:30am SSE 7 9 - - - - - Partly cloudy - 6.2 1027.0 0.8
17/12:00am SW 10 14 - - - - - Mostly clear - 7.5 1026.9 0.8
 
Date/Time
EST
Wind Sea
Height
m
Swell Vis
km
Cloud Weather Temp
°C
Press
hPa
Rain since
9am
mm
Dir  Spd
kts
Gust
kts
Height
m
Period
s
Dir
16/11:30pm SSE 5 8 - - - - - Partly cloudy - 6.0 1026.8 0.8
16/11:00pm S 7 9 - - - - - - - 6.1 1026.8 0.8
16/10:30pm S 7 10 - - - - - - - 5.7 1026.7 0.8
16/10:00pm S 6 8 - - - - - - - 5.6 1026.5 0.8
16/09:30pm SSE 7 11 - - - - - - - 5.6 1026.3 0.8
16/09:00pm S 10 16 - - - - - Mostly clear - 6.7 1025.9 0.8
16/08:30pm S 13 19 - - - - - Partly cloudy - 7.6 1025.8 0.8
16/08:00pm SSW 15 20 - - - - - Partly cloudy - 7.6 1025.6 0.8
16/07:30pm SSW 12 17 - - - - - Partly cloudy - 7.6 1025.2 0.8
16/07:00pm SSW 19 30 - - - - - Partly cloudy - 7.2 1024.4 0.8
16/06:30pm SW 18 26 - - - - - Partly cloudy - 8.0 1023.9 0.8
16/06:00pm SSW 19 25 - - - - - Partly cloudy - 8.1 1023.4 0.8
16/05:30pm SSW 17 25 - - - - - Partly cloudy - 8.1 1023.0 0.8
16/05:21pm SSW 15 25 - - - - - Partly cloudy - 8.1 1022.8 0.8
16/05:00pm S 16 22 - - - - - Partly cloudy - 7.2 1022.6 0.8
16/04:35pm SW 18 29 - - - - - Partly cloudy - 8.8 1022.2 0.8
16/04:30pm SW 18 27 - - - - - Partly cloudy - 8.8 1022.2 0.8
16/04:00pm SSW 21 28 - - - - - Partly cloudy - 8.6 1021.8 0.8
16/03:30pm SSW 20 29 - - - - - Partly cloudy - 8.7 1021.6 0.8
16/03:00pm SW 24 30 - - - - - Partly cloudy - 8.2 1021.3 0.8
16/02:30pm SW 21 31 - - - - - Partly cloudy - 9.2 1020.9 0.8
16/02:00pm SW 21 32 - - - - - - - 9.1 1020.6 0.8
16/01:54pm SW 21 32 - - - - - - - 9.3 1020.5 0.8
16/01:30pm SSW 23 30 - - - - - Partly cloudy - 8.9 1020.3 0.8
16/01:00pm SW 23 31 - - - - - Partly cloudy - 8.9 1020.2 0.8
16/12:30pm SW 27 33 - - - - - Partly cloudy - 8.9 1020.1 0.8
16/12:00pm SW 25 31 - - - - - Partly cloudy Recent precip. 8.8 1019.9 0.8
16/11:30am SW 23 31 - - - - - Partly cloudy - 7.4 1019.9 0.8
16/11:07am SW 21 33 - - - - - Partly cloudy - 8.7 1019.2 0.6
16/11:00am SW 20 27 - - - - - Partly cloudy - 8.0 1019.3 0.6
16/10:44am SW 29 39 - - - - - Partly cloudy - 6.1 1019.6 0.4
16/10:41am SW 27 39 - - - - - Partly cloudy - 6.2 1019.4 0.4
16/10:36am SW 23 35 - - - - - Partly cloudy - 8.1 1019.0 0.4
16/10:30am SW 24 32 - - - - - Partly cloudy - 8.3 1018.9 0.4
16/10:00am SW 19 25 - - - - - Partly cloudy - 8.4 1018.7 0.4
16/09:30am SSW 21 35 - - - - - Partly cloudy - 6.7 1018.4 0.4
16/09:00am SW 28 38 - - - - - Partly cloudy - 9.0 1017.8 1.0
16/08:30am SW 27 36 - - - - - Partly cloudy - 8.3 1017.4 1.0
16/08:12am SW 24 34 - - - - - - - 7.9 1017.1 1.0
16/08:00am SW 27 35 - - - - - Partly cloudy - 7.3 1016.9 1.0
16/07:41am SW 26 43 - - - - - Partly cloudy - 8.1 1016.4 1.0
16/07:30am SW 25 33 - - - - - Partly cloudy - 8.3 1016.4 1.0
16/07:00am SW 29 39 - - - - - Partly cloudy - 8.0 1015.8 1.0
16/06:30am SW 27 37 - - - - - Partly cloudy - 8.2 1015.3 0.6
16/06:01am SW 33 45 - - - - - - - 8.2 1014.9 0.6
16/06:00am SW 32 41 - - - - - Mostly clear - 8.3 1014.8 0.6
16/05:47am SW 33 43 - - - - - Partly cloudy - 8.2 1014.6 0.6
16/05:30am SW 35 42 - - - - - Partly cloudy - 8.5 1014.2 0.6
16/05:10am SW 32 42 - - - - - Partly cloudy - 8.7 1013.7 0.6
16/05:00am SW 32 42 - - - - - Partly cloudy - 8.6 1013.5 0.6
16/04:30am SW 26 43 - - - - - Partly cloudy - 9.0 1012.9 0.6
16/04:00am SW 30 46 - - - - - Partly cloudy - 9.1 1012.5 0.6
16/03:51am SW 31 46 - - - - - Partly cloudy - 9.2 1012.4 0.6
16/03:48am SW 30 43 - - - - - Partly cloudy - 9.1 1012.4 0.6
16/03:30am SW 26 45 - - - - - Partly cloudy - 9.1 1012.0 0.6
16/03:00am SW 31 45 - - - - - Partly cloudy - 9.4 1011.8 0.6
16/02:44am SW 26 45 - - - - - Partly cloudy - 9.6 1011.4 0.6
16/02:42am WSW 23 39 - - - - - Partly cloudy - 9.6 1011.5 0.6
16/02:34am SW 27 48 - - - - - Partly cloudy - 9.6 1011.5 0.6
16/02:30am SW 31 48 - - - - - Partly cloudy - 9.7 1011.5 0.6
16/02:00am WSW 27 43 - - - - - Partly cloudy - 9.7 1011.3 0.6
16/01:30am WSW 22 40 - - - - - Partly cloudy - 10.2 1011.0 0.6
16/01:00am W 26 41 - - - - - Partly cloudy - 10.3 1010.8 0.6
16/12:30am W 24 37 - - - - - Partly cloudy - 10.3 1010.9 0.6
16/12:21am W 23 35 - - - - - Partly cloudy - 10.3 1010.8 0.6
16/12:00am W 22 31 - - - - - Cloudy Recent precip. 9.6 1011.2 0.6
 
Date/Time
EST
Wind Sea
Height
m
Swell Vis
km
Cloud Weather Temp
°C
Press
hPa
Rain since
9am
mm
Dir  Spd
kts
Gust
kts
Height
m
Period
s
Dir
15/11:40pm W 22 32 - - - - - Partly cloudy - 10.6 1010.9 0.2
15/11:30pm W 22 31 - - - - - Partly cloudy - 10.6 1011.0 0.2
15/11:00pm W 22 33 - - - - - Partly cloudy - 10.5 1011.2 0.2
15/10:33pm W 19 29 - - - - - Partly cloudy - 10.5 1011.3 0.2
15/10:30pm W 20 29 - - - - - Partly cloudy - 10.4 1011.3 0.2
15/10:00pm W 19 26 - - - - - Partly cloudy - 10.4 1011.4 0.2
15/09:30pm W 18 29 - - - - - Partly cloudy - 10.5 1011.2 0.2
15/09:25pm W 18 29 - - - - - Partly cloudy - 10.5 1011.3 0.2
15/09:00pm W 17 26 - - - - - - - 10.4 1011.2 0.2
15/08:30pm W 17 25 - - - - - Partly cloudy - 10.4 1011.6 0.2
15/08:14pm W 17 27 - - - - - - - 10.5 1011.6 0.2
15/08:00pm W 17 24 - - - - - Partly cloudy - 10.5 1011.8 0.2
15/07:30pm W 17 25 - - - - - - - 10.8 1011.7 0.2
15/07:00pm W 15 23 - - - - - Partly cloudy - 10.8 1011.4 0.2
15/06:30pm W 15 20 - - - - - Partly cloudy - 10.9 1011.5 0.2
15/06:00pm W 14 20 - - - - - Partly cloudy - 10.9 1011.2 0.2
15/05:30pm W 12 16 - - - - - Partly cloudy - 10.9 1011.4 0.2
15/05:00pm W 10 14 - - - - - Partly cloudy - 11.0 1010.8 0.2
15/04:30pm W 9 13 - - - - - Partly cloudy - 11.3 1010.8 0.2
15/04:00pm W 8 12 - - - - - Partly cloudy - 11.3 1010.9 0.2
15/03:30pm WSW 6 10 - - - - - Partly cloudy - 11.3 1010.9 0.2
15/03:00pm WSW 8 12 - - - - - Partly cloudy - 11.4 1010.9 0.2
15/02:30pm W 7 10 - - - - - Partly cloudy - 11.5 1011.3 0.2
15/02:00pm W 10 13 - - - - - Partly cloudy - 11.6 1012.1 0.2
15/01:30pm W 10 13 - - - - - Partly cloudy - 11.6 1012.5 0.2
15/01:00pm W 9 11 - - - - - Partly cloudy - 11.4 1012.5 0.2
15/12:30pm W 7 10 - - - - - Partly cloudy - 11.3 1012.8 0.0
15/12:00pm WSW 5 11 - - - - - Cloudy - 11.5 1013.1 0.0
15/11:30am W 6 9 - - - - - Partly cloudy - 12.2 1012.8 0.0
15/11:00am WSW 7 10 - - - - - Cloudy - 12.2 1013.3 0.0
15/10:30am W 7 11 - - - - - Partly cloudy - 12.1 1014.1 0.0
15/10:00am WSW 6 11 - - - - - Partly cloudy - 11.7 1014.4 0.0
15/09:30am W 6 11 - - - - - Partly cloudy - 11.6 1014.6 0.0
15/09:00am SW 10 13 - - - - - Mostly cloudy - 11.3 1014.3 5.2
15/08:46am SW 12 15 - - - - - Partly cloudy - 11.2 1014.2 5.2
15/08:30am SW 11 15 - - - - - Partly cloudy - 11.2 1014.3 5.2
15/08:00am SW 13 16 - - - - - Partly cloudy - 11.3 1014.2 5.2
15/07:30am WSW 14 19 - - - - - Partly cloudy - 11.2 1014.1 4.8
15/07:17am SW 13 19 - - - - - Partly cloudy - 11.3 1014.2 4.6
15/07:16am SW 13 19 - - - - - Partly cloudy - 11.2 1014.3 4.2
15/07:00am SW 14 20 - - - - - Partly cloudy - 11.3 1014.0 4.2
15/06:30am WSW 11 19 - - - - - Cloudy - 11.8 1013.7 3.2
15/06:00am W 14 23 - - - - - Cloudy Rain 12.0 1013.7 2.8
15/05:49am W 14 21 - - - - - Cloudy - 12.0 1013.6 2.6
15/05:30am W 15 22 - - - - - Cloudy - 12.0 1013.3 2.6
15/05:21am W 16 22 - - - - - Cloudy - 12.1 1013.3 2.6

Other formats

Comma delimited format used in spreadsheet applications
http://www.bom.gov.au/fwo/IDT60701/IDT60701.95954.axf

JavaScript Object Notation format (JSON) in row-major order
http://www.bom.gov.au/fwo/IDT60701/IDT60701.95954.json

Data quality

Most of these data are generated automatically and are frequently updated. Quality checks on data are not normally performed. It is possible for incorrect values to appear. Refer to information at About Latest Weather Observations and please check the disclaimer before using these data.